createdAt,value
2022-09-30T00:00:35.480Z,50.90
2022-09-30T00:05:38.184Z,50.81
2022-09-30T00:10:40.936Z,51.07
2022-09-30T00:15:48.720Z,51.09
2022-09-30T00:20:53.066Z,51.32
2022-09-30T00:25:58.699Z,51.40
2022-09-30T00:31:03.386Z,51.45
2022-09-30T00:36:06.362Z,51.82
2022-09-30T00:41:09.111Z,51.82
2022-09-30T00:46:18.093Z,51.88
2022-09-30T00:51:22.909Z,52.01
2022-09-30T00:56:26.448Z,52.06
2022-09-30T01:01:30.406Z,52.24
2022-09-30T01:06:32.999Z,52.14
2022-09-30T01:11:35.555Z,52.31
2022-09-30T01:16:46.862Z,52.50
2022-09-30T01:22:00.686Z,52.60
2022-09-30T01:27:37.463Z,52.75
2022-09-30T01:32:53.415Z,52.99
2022-09-30T01:38:01.670Z,52.99
2022-09-30T01:43:06.035Z,53.09
2022-09-30T01:48:12.551Z,53.10
2022-09-30T01:53:17.813Z,53.07
2022-09-30T01:58:26.487Z,53.35
2022-09-30T02:03:32.634Z,53.39
2022-09-30T02:08:39.226Z,53.55
2022-09-30T02:13:43.611Z,53.54
2022-09-30T02:18:48.358Z,53.75
2022-09-30T02:23:51.478Z,53.65
2022-09-30T02:28:56.056Z,53.76
2022-09-30T02:34:01.408Z,53.86
2022-09-30T02:39:06.876Z,54.12
2022-09-30T02:44:09.476Z,54.30
2022-09-30T02:49:18.562Z,54.40
2022-09-30T02:54:24.017Z,54.27
2022-09-30T02:59:26.670Z,54.27
2022-09-30T03:04:31.901Z,54.51
2022-09-30T03:09:35.379Z,54.58
2022-09-30T03:14:46.401Z,54.70
2022-09-30T03:20:05.428Z,54.67
2022-09-30T03:25:15.148Z,54.96
2022-09-30T03:30:23.453Z,54.97
2022-09-30T03:35:31.918Z,54.87
2022-09-30T03:40:38.381Z,55.01
2022-09-30T03:45:47.556Z,55.27
2022-09-30T03:50:51.502Z,55.20
2022-09-30T03:55:54.230Z,55.41
2022-09-30T04:00:57.921Z,55.46
2022-09-30T04:06:03.052Z,55.46
2022-09-30T04:11:05.862Z,55.61
2022-09-30T04:16:09.092Z,55.79
2022-09-30T04:21:13.617Z,55.81
2022-09-30T04:26:16.977Z,55.82
2022-09-30T04:31:21.209Z,55.73
2022-09-30T04:36:25.412Z,55.97
2022-09-30T04:41:28.015Z,56.09
2022-09-30T04:46:30.781Z,55.92
2022-09-30T04:51:35.591Z,56.22
2022-09-30T04:56:38.215Z,56.28
2022-09-30T05:01:42.473Z,56.44
2022-09-30T05:06:46.656Z,56.39
2022-09-30T05:11:49.255Z,56.68
2022-09-30T05:16:51.891Z,56.55
2022-09-30T05:21:55.785Z,56.43
2022-09-30T05:26:58.361Z,56.60
2022-09-30T05:32:01.323Z,56.66
2022-09-30T05:37:06.425Z,56.78
2022-09-30T05:42:13.807Z,56.70
2022-09-30T05:47:17.238Z,56.84
2022-09-30T05:52:22.136Z,56.78
2022-09-30T05:57:25.330Z,56.88
2022-09-30T06:02:28.176Z,56.84
2022-09-30T06:07:32.291Z,56.84
2022-09-30T06:12:36.195Z,56.86
2022-09-30T06:17:38.796Z,56.81
2022-09-30T06:22:43.906Z,56.74
2022-09-30T06:27:47.403Z,57.33
2022-09-30T06:32:50.048Z,57.22
2022-09-30T06:37:54.409Z,57.34
2022-09-30T06:42:59.826Z,57.30
2022-09-30T06:48:03.991Z,57.30
2022-09-30T06:53:08.681Z,56.99
2022-09-30T06:58:15.030Z,56.81
2022-09-30T07:03:22.911Z,56.61
2022-09-30T07:08:31.845Z,56.41
2022-09-30T07:13:34.941Z,56.00
2022-09-30T07:18:37.720Z,54.85
2022-09-30T07:23:45.559Z,55.55
2022-09-30T07:28:48.242Z,55.12
2022-09-30T07:33:52.154Z,55.43
2022-09-30T07:38:56.357Z,55.32
2022-09-30T07:43:59.728Z,55.11
2022-09-30T07:49:03.996Z,55.44
2022-09-30T07:54:09.019Z,55.11
2022-09-30T07:59:11.876Z,54.46
2022-09-30T08:04:14.905Z,54.50
2022-09-30T08:09:20.132Z,54.20
2022-09-30T08:14:23.940Z,54.04
2022-09-30T08:19:27.438Z,53.97
2022-09-30T08:24:31.431Z,53.69
2022-09-30T08:34:56.679Z,53.90
2022-09-30T08:40:00.935Z,53.56
2022-09-30T08:45:06.344Z,47.39
2022-09-30T08:50:16.669Z,46.37
2022-09-30T08:55:23.055Z,46.84
2022-09-30T09:00:25.909Z,46.23
2022-09-30T09:05:34.198Z,46.84
2022-09-30T09:10:42.093Z,47.14
2022-09-30T09:15:53.771Z,49.26
2022-09-30T09:20:57.729Z,48.64
2022-09-30T09:26:01.691Z,48.48
2022-09-30T09:31:04.612Z,48.65
2022-09-30T09:36:13.832Z,48.91
2022-09-30T09:41:25.641Z,49.37
2022-09-30T09:46:29.292Z,49.25
2022-09-30T09:51:33.788Z,49.63
2022-09-30T09:56:38.088Z,49.87
2022-09-30T10:01:42.289Z,50.15
2022-09-30T10:06:47.241Z,49.87
2022-09-30T10:11:51.210Z,49.81
2022-09-30T10:16:58.469Z,49.88
2022-09-30T10:22:18.525Z,49.91
2022-09-30T10:27:29.856Z,50.96
2022-09-30T10:32:32.474Z,51.50
2022-09-30T10:37:35.602Z,51.71
2022-09-30T10:42:41.459Z,50.74
2022-09-30T10:47:45.111Z,50.73
2022-09-30T10:52:55.595Z,50.45
2022-09-30T10:58:04.562Z,50.37
2022-09-30T11:03:14.427Z,50.24
2022-09-30T11:08:19.154Z,50.06
2022-09-30T11:13:25.199Z,49.93
2022-09-30T11:18:31.634Z,49.89
2022-09-30T11:23:36.050Z,49.79
2022-09-30T11:28:52.833Z,49.61
2022-09-30T11:34:05.014Z,49.09
2022-09-30T11:39:38.854Z,48.66
2022-09-30T11:44:43.701Z,48.50
2022-09-30T11:50:00.059Z,48.17
2022-09-30T11:55:15.744Z,48.70
2022-09-30T12:00:20.126Z,48.20
2022-09-30T12:05:25.407Z,48.52
2022-09-30T12:10:29.458Z,48.33
2022-09-30T12:15:33.435Z,48.40
2022-09-30T12:20:39.424Z,48.52
2022-09-30T12:25:43.149Z,48.61
2022-09-30T12:30:47.104Z,48.43
2022-09-30T12:36:26.935Z,48.57
2022-09-30T12:41:48.623Z,48.86
2022-09-30T12:47:02.210Z,48.62
2022-09-30T12:52:06.832Z,48.39
2022-09-30T12:57:10.183Z,48.34
2022-09-30T13:02:27.659Z,48.08
2022-09-30T13:07:30.519Z,48.23
2022-09-30T13:12:43.309Z,47.45
2022-09-30T13:17:47.217Z,46.98
2022-09-30T13:22:58.285Z,46.10
2022-09-30T13:28:29.794Z,45.68
2022-09-30T13:33:44.591Z,45.48
2022-09-30T13:38:47.243Z,45.31
2022-09-30T13:43:56.499Z,44.44
2022-09-30T13:49:02.653Z,44.16
2022-09-30T13:54:08.320Z,44.28
2022-09-30T13:59:39.958Z,43.67
2022-09-30T14:04:51.147Z,43.24
2022-09-30T14:10:23.670Z,44.54
2022-09-30T14:15:55.838Z,45.24
2022-09-30T14:21:21.167Z,46.04
2022-09-30T14:26:34.639Z,46.30
2022-09-30T14:31:44.468Z,46.36
2022-09-30T14:36:49.492Z,46.54
2022-09-30T14:41:53.808Z,46.61
2022-09-30T14:47:01.096Z,45.37
2022-09-30T14:52:05.291Z,45.56
2022-09-30T14:57:16.005Z,44.41
2022-09-30T15:02:20.259Z,43.79
2022-09-30T15:07:24.568Z,43.77
2022-09-30T15:12:28.604Z,45.10
2022-09-30T15:17:36.312Z,45.06
2022-09-30T15:22:40.322Z,38.94
2022-09-30T15:27:43.418Z,38.47
2022-09-30T15:32:46.252Z,38.77
2022-09-30T15:37:50.192Z,40.40
2022-09-30T15:42:55.461Z,42.04
2022-09-30T15:47:59.006Z,42.05
2022-09-30T15:53:06.055Z,41.71
2022-09-30T15:58:33.652Z,41.39
2022-09-30T16:03:36.333Z,43.77
2022-09-30T16:08:43.902Z,44.42
2022-09-30T16:13:47.847Z,44.42
2022-09-30T16:18:50.776Z,44.12
2022-09-30T16:23:54.684Z,43.94
2022-09-30T16:29:01.888Z,43.97
2022-09-30T16:34:04.589Z,44.36
2022-09-30T16:39:09.528Z,44.24
2022-09-30T16:44:15.793Z,44.45
2022-09-30T16:49:19.735Z,44.62
2022-09-30T16:54:24.260Z,44.83
2022-09-30T16:59:27.176Z,44.97
2022-09-30T17:04:29.858Z,45.42
2022-09-30T17:09:34.002Z,45.47
2022-09-30T17:14:36.804Z,45.81
2022-09-30T17:24:43.581Z,45.83
2022-09-30T17:29:46.294Z,46.05
2022-09-30T17:34:48.875Z,46.19
2022-09-30T17:39:52.892Z,46.23
2022-09-30T17:44:55.873Z,46.12
2022-09-30T17:49:59.611Z,46.16
2022-09-30T17:55:03.783Z,46.33
2022-09-30T18:00:07.511Z,46.46
2022-09-30T18:05:11.223Z,46.45
2022-09-30T18:10:15.310Z,46.49
2022-09-30T18:15:18.383Z,46.73
2022-09-30T18:20:23.455Z,46.68
2022-09-30T18:25:30.433Z,47.17
2022-09-30T18:30:33.246Z,47.56
2022-09-30T18:35:36.517Z,47.88
2022-09-30T18:40:42.261Z,48.12
2022-09-30T18:45:53.912Z,48.22
2022-09-30T18:50:57.068Z,48.50
2022-09-30T18:56:02.526Z,48.40
2022-09-30T19:01:05.856Z,48.69
2022-09-30T19:06:09.359Z,48.49
2022-09-30T19:11:15.611Z,48.79
2022-09-30T19:16:19.680Z,48.74
2022-09-30T19:21:22.464Z,48.73
2022-09-30T19:26:27.014Z,48.96
2022-09-30T19:31:30.013Z,48.79
2022-09-30T19:36:43.848Z,48.84
2022-09-30T19:41:53.893Z,48.77
2022-09-30T19:46:56.573Z,48.94
2022-09-30T19:51:59.983Z,48.85
2022-09-30T19:57:04.750Z,48.81
2022-09-30T20:02:07.528Z,48.69
2022-09-30T20:07:10.320Z,48.86
2022-09-30T20:12:14.826Z,48.66
2022-09-30T20:17:17.741Z,48.81
2022-09-30T20:22:20.489Z,48.87
2022-09-30T20:27:24.462Z,48.94
2022-09-30T20:32:30.638Z,48.97
2022-09-30T20:37:33.213Z,48.93
2022-09-30T20:42:38.156Z,48.81
2022-09-30T20:47:41.222Z,49.03
2022-09-30T20:52:43.885Z,48.91
2022-09-30T20:57:48.943Z,49.10
2022-09-30T21:02:52.283Z,48.93
2022-09-30T21:07:54.904Z,48.88
2022-09-30T21:13:01.140Z,48.85
2022-09-30T21:18:03.827Z,48.97
2022-09-30T21:23:06.463Z,49.02
2022-09-30T21:28:10.613Z,49.36
2022-09-30T21:33:13.296Z,49.44
2022-09-30T21:43:21.641Z,49.69
2022-09-30T21:48:24.293Z,49.86
2022-09-30T21:53:27.284Z,49.92
2022-09-30T21:58:32.438Z,49.80
2022-09-30T22:03:37.762Z,50.11
2022-09-30T22:08:41.069Z,50.15
2022-09-30T22:13:45.221Z,50.12
2022-09-30T22:18:47.978Z,50.19
2022-09-30T22:23:50.688Z,50.14
2022-09-30T22:28:57.015Z,50.50
2022-09-30T22:34:18.378Z,50.31
2022-09-30T22:39:21.328Z,50.36
2022-09-30T22:44:26.320Z,50.22
2022-09-30T22:49:29.277Z,50.13
2022-09-30T22:54:31.913Z,49.95
2022-09-30T22:59:36.606Z,50.04
2022-09-30T23:04:39.335Z,50.05
2022-09-30T23:09:42.017Z,50.04
2022-09-30T23:14:46.085Z,49.99
2022-09-30T23:19:48.757Z,49.98
2022-09-30T23:24:51.536Z,50.16
2022-09-30T23:29:55.943Z,50.17
2022-09-30T23:34:58.577Z,50.03
2022-09-30T23:40:01.618Z,50.23
2022-09-30T23:45:06.157Z,50.20
2022-09-30T23:50:11.680Z,50.09
2022-09-30T23:55:14.486Z,50.25
